Time;durP1;ratioP1;P1;durP2;ratioP2;P2;SDS_P1;SDS_P2;PMS_P1;PMS_P2;Temp;Humidity;BMP_temperature;BMP_pressure;BME280_temperature;BME280_humidity;BME280_pressure;Samples;Min_cycle;Max_cycle;Signal;HPM_P1;HPM_P2
2021/08/07 00:01:52;;;;;;;8.77;7.90;;;15.90;99.90;;;;;;5030008;28;20233;-59
2021/08/07 00:04:17;;;;;;;9.77;7.90;;;15.90;99.90;;;;;;5030208;28;20183;-60
2021/08/07 00:06:43;;;;;;;8.00;7.30;;;15.80;99.90;;;;;;5030020;28;20186;-58
2021/08/07 00:09:08;;;;;;;8.40;7.60;;;15.80;99.90;;;;;;5030389;28;20191;-60
2021/08/07 00:11:34;;;;;;;9.37;8.07;;;15.80;99.90;;;;;;5029587;28;20191;-59
2021/08/07 00:13:59;;;;;;;9.53;7.63;;;15.80;99.90;;;;;;5030810;28;20274;-60
2021/08/07 00:16:25;;;;;;;7.30;6.50;;;15.70;99.90;;;;;;5029792;28;20214;-59
2021/08/07 00:18:50;;;;;;;7.83;7.07;;;15.70;99.90;;;;;;5030259;28;20207;-59
2021/08/07 00:21:16;;;;;;;6.80;6.30;;;15.70;99.90;;;;;;5029616;28;20179;-59
2021/08/07 00:23:41;;;;;;;6.50;6.00;;;15.70;99.90;;;;;;5017450;28;20182;-60
2021/08/07 00:26:07;;;;;;;7.10;6.50;;;15.70;99.90;;;;;;5029825;28;20198;-59
2021/08/07 00:28:33;;;;;;;6.40;5.90;;;15.70;99.90;;;;;;5029179;28;20186;-59
2021/08/07 00:30:59;;;;;;;6.87;6.37;;;15.70;99.90;;;;;;5027171;28;20179;-58
2021/08/07 00:33:25;;;;;;;6.17;5.67;;;15.60;99.90;;;;;;5029072;28;20432;-59
2021/08/07 00:35:50;;;;;;;6.10;5.60;;;15.60;99.90;;;;;;5029970;28;20210;-58
2021/08/07 00:38:16;;;;;;;6.53;6.03;;;15.60;99.90;;;;;;5029322;28;20555;-59
2021/08/07 00:40:41;;;;;;;6.70;6.10;;;15.60;99.90;;;;;;5029886;28;20218;-59
2021/08/07 00:43:10;;;;;;;7.00;6.40;;;15.50;99.90;;;;;;5030193;28;20183;-59
2021/08/07 00:45:39;;;;;;;6.43;5.80;;;15.50;99.90;;;;;;5029918;28;20225;-58
2021/08/07 00:48:07;;;;;;;7.07;6.47;;;15.50;99.90;;;;;;5034353;28;20437;-59
2021/08/07 00:50:32;;;;;;;6.10;5.60;;;15.40;99.90;;;;;;5031912;28;20475;-59
2021/08/07 00:52:58;;;;;;;6.60;6.00;;;15.40;99.90;;;;;;5029016;28;20473;-59
2021/08/07 00:55:24;;;;;;;6.00;5.50;;;15.40;99.90;;;;;;5029287;28;20199;-60
2021/08/07 00:57:49;;;;;;;6.07;5.47;;;15.40;99.90;;;;;;5029864;28;20186;-60
2021/08/07 01:00:15;;;;;;;6.20;5.70;;;15.30;99.90;;;;;;5028629;28;20260;-60
2021/08/07 01:02:47;;;;;;;5.63;5.10;;;15.30;99.90;;;;;;5030026;28;20183;-60
2021/08/07 01:05:21;;;;;;;6.00;5.50;;;15.30;99.90;;;;;;5029178;28;20218;-60
2021/08/07 01:08:02;;;;;;;6.10;5.57;;;15.20;99.90;;;;;;5018853;28;20421;-59
2021/08/07 01:10:45;;;;;;;6.17;5.67;;;15.20;99.90;;;;;;5028852;28;20771;-59
2021/08/07 01:13:28;;;;;;;5.60;5.20;;;15.20;99.90;;;;;;5028814;28;20766;-59
2021/08/07 01:16:05;;;;;;;5.87;5.47;;;15.20;99.90;;;;;;5029415;28;20472;-59
2021/08/07 01:18:34;;;;;;;6.27;5.77;;;15.10;99.90;;;;;;5026458;28;20461;-60
2021/08/07 01:21:00;;;;;;;5.90;5.40;;;15.10;99.90;;;;;;5029477;28;20432;-59
2021/08/07 01:23:48;;;;;;;6.73;6.03;;;15.10;99.90;;;;;;5028418;28;20429;-59
2021/08/07 01:26:45;;;;;;;6.60;6.10;;;15.10;99.90;;;;;;5029581;28;20516;-60
2021/08/07 01:29:12;;;;;;;6.40;5.80;;;15.00;99.90;;;;;;5028916;28;20437;-60
2021/08/07 01:31:38;;;;;;;5.80;5.30;;;15.00;99.90;;;;;;5029216;28;20491;-60
2021/08/07 01:34:03;;;;;;;6.00;5.50;;;14.90;99.90;;;;;;5026415;28;20441;-60
2021/08/07 01:36:30;;;;;;;5.90;5.40;;;14.90;99.90;;;;;;5027467;28;20187;-59
2021/08/07 01:38:56;;;;;;;5.77;5.20;;;14.90;99.90;;;;;;5027728;28;20202;-59
2021/08/07 01:41:22;;;;;;;6.53;5.93;;;14.90;99.90;;;;;;5029152;28;20789;-59
2021/08/07 01:43:49;;;;;;;6.17;5.67;;;14.90;99.90;;;;;;5029456;28;20183;-59
2021/08/07 01:46:17;;;;;;;6.40;5.40;;;14.90;99.90;;;;;;5028833;28;20430;-59
2021/08/07 01:48:42;;;;;;;6.53;6.00;;;14.80;99.90;;;;;;5025735;28;20499;-59
2021/08/07 01:51:14;;;;;;;6.10;5.60;;;14.80;99.90;;;;;;5029117;28;20896;-59
2021/08/07 01:53:41;;;;;;;7.07;6.00;;;14.80;99.90;;;;;;5027509;28;20198;-59
2021/08/07 01:56:27;;;;;;;5.83;5.33;;;14.80;99.90;;;;;;5029269;28;20426;-59
2021/08/07 01:58:58;;;;;;;6.40;5.90;;;14.70;99.90;;;;;;5028266;28;20473;-59
2021/08/07 02:01:28;;;;;;;6.47;5.97;;;14.70;99.90;;;;;;5028914;28;20473;-58
2021/08/07 02:03:55;;;;;;;6.90;6.30;;;14.70;99.90;;;;;;5028177;28;20492;-60
2021/08/07 02:06:21;;;;;;;5.90;5.40;;;14.70;99.90;;;;;;5029185;28;20402;-52
2021/08/07 02:08:47;;;;;;;5.97;5.47;;;14.70;99.90;;;;;;5028019;28;20539;-52
2021/08/07 02:11:14;;;;;;;6.97;6.37;;;14.70;99.90;;;;;;5029114;28;20505;-48
2021/08/07 02:13:40;;;;;;;6.60;5.90;;;14.60;99.90;;;;;;5029092;28;20421;-52
2021/08/07 02:16:06;;;;;;;7.83;5.77;;;14.60;99.90;;;;;;5027689;28;20464;-50
2021/08/07 02:18:33;;;;;;;6.50;5.83;;;14.60;99.90;;;;;;5027169;28;20852;-50
2021/08/07 02:20:59;;;;;;;7.10;6.17;;;14.60;99.90;;;;;;5026740;28;20448;-54
2021/08/07 02:23:25;;;;;;;6.87;5.70;;;14.60;99.90;;;;;;5028128;28;20429;-48
2021/08/07 02:25:54;;;;;;;6.10;5.60;;;14.50;99.90;;;;;;5028904;28;20475;-49
2021/08/07 02:28:21;;;;;;;6.57;6.07;;;14.50;99.90;;;;;;5028870;28;20417;-49
2021/08/07 02:30:48;;;;;;;9.07;5.47;;;14.60;99.90;;;;;;5028211;28;20897;-52
2021/08/07 02:33:15;;;;;;;6.43;5.83;;;14.50;99.90;;;;;;5028693;28;20433;-49
2021/08/07 02:35:41;;;;;;;8.90;6.47;;;14.50;99.90;;;;;;5028274;28;20900;-49
2021/08/07 02:38:07;;;;;;;6.20;5.70;;;14.50;99.90;;;;;;5028087;28;20832;-48
2021/08/07 02:40:32;;;;;;;6.17;5.37;;;14.50;99.90;;;;;;5027481;28;20468;-53
2021/08/07 02:42:59;;;;;;;6.40;5.90;;;14.40;99.90;;;;;;5028930;28;20225;-49
2021/08/07 02:45:25;;;;;;;5.97;5.47;;;14.40;99.90;;;;;;5029808;28;20183;-50
2021/08/07 02:47:51;;;;;;;5.60;5.20;;;14.40;99.90;;;;;;5032268;28;20410;-49
2021/08/07 02:50:17;;;;;;;6.20;5.70;;;14.40;99.90;;;;;;5031637;28;20417;-50
2021/08/07 02:52:45;;;;;;;6.10;5.60;;;14.40;99.90;;;;;;5032408;28;20414;-50
2021/08/07 02:55:10;;;;;;;6.00;5.50;;;14.40;99.90;;;;;;5032148;28;20163;-51
2021/08/07 02:57:36;;;;;;;7.50;6.17;;;14.40;99.90;;;;;;5030927;28;20483;-49
2021/08/07 03:00:04;;;;;;;6.33;5.70;;;14.40;99.90;;;;;;5031924;28;20250;-50
2021/08/07 03:02:30;;;;;;;8.73;6.20;;;14.40;99.90;;;;;;5031516;28;20183;-49
2021/08/07 03:04:55;;;;;;;6.70;5.93;;;14.30;99.90;;;;;;5032142;28;20454;-52
2021/08/07 03:07:21;;;;;;;6.60;5.40;;;14.30;99.90;;;;;;5031262;28;20183;-52
2021/08/07 03:09:46;;;;;;;6.40;5.90;;;14.30;99.90;;;;;;5031952;28;20163;-53
2021/08/07 03:12:12;;;;;;;5.83;5.33;;;14.20;99.90;;;;;;5032139;28;20217;-50
2021/08/07 03:14:38;;;;;;;6.30;5.80;;;14.30;99.90;;;;;;5029682;28;20197;-51
2021/08/07 03:17:04;;;;;;;12.17;7.57;;;14.20;99.90;;;;;;5030524;28;20426;-51
2021/08/07 03:19:30;;;;;;;6.57;5.70;;;14.20;99.90;;;;;;5031891;28;20218;-52
2021/08/07 03:21:55;;;;;;;8.87;7.97;;;14.20;99.90;;;;;;5033299;28;20465;-48
2021/08/07 03:24:21;;;;;;;5.90;5.50;;;14.20;99.90;;;;;;5039922;28;20174;-47
2021/08/07 03:26:46;;;;;;;6.60;6.00;;;14.20;99.90;;;;;;5033348;28;20660;-47
2021/08/07 03:29:12;;;;;;;7.70;7.00;;;14.20;99.90;;;;;;5033211;28;20279;-49
2021/08/07 03:31:37;;;;;;;10.40;8.03;;;14.20;99.90;;;;;;5031295;28;20244;-53
2021/08/07 03:34:03;;;;;;;8.63;7.70;;;14.20;99.90;;;;;;5031323;28;20637;-53
2021/08/07 03:36:29;;;;;;;6.70;6.10;;;14.10;99.90;;;;;;5030371;28;20666;-51
2021/08/07 03:38:54;;;;;;;6.60;6.10;;;14.20;99.90;;;;;;5031331;28;20207;-50
2021/08/07 03:41:20;;;;;;;6.10;5.60;;;14.20;99.90;;;;;;5030109;28;20183;-50
2021/08/07 03:43:45;;;;;;;6.77;6.17;;;14.10;99.90;;;;;;5031182;28;20203;-52
2021/08/07 03:46:11;;;;;;;7.27;6.50;;;14.10;99.90;;;;;;5030327;28;20728;-52
2021/08/07 03:48:36;;;;;;;6.40;5.90;;;14.10;99.90;;;;;;5030465;28;20664;-49
2021/08/07 03:51:02;;;;;;;7.90;6.10;;;14.00;99.90;;;;;;5029607;28;20226;-48
2021/08/07 03:53:27;;;;;;;7.10;6.50;;;14.10;99.90;;;;;;5030705;28;20199;-50
2021/08/07 03:55:53;;;;;;;6.87;6.27;;;14.10;99.90;;;;;;5029495;28;20175;-50
2021/08/07 03:58:19;;;;;;;7.17;6.10;;;14.10;99.90;;;;;;5030510;28;20748;-51
2021/08/07 04:00:44;;;;;;;6.67;5.97;;;14.10;99.90;;;;;;5029934;28;20738;-49
2021/08/07 04:03:10;;;;;;;9.63;6.23;;;14.10;99.90;;;;;;5030584;28;20241;-49
2021/08/07 04:05:35;;;;;;;6.20;5.60;;;14.10;99.90;;;;;;5030750;28;20271;-49
2021/08/07 04:08:05;;;;;;;6.50;5.90;;;14.10;99.90;;;;;;5029055;28;20195;-54
2021/08/07 04:10:32;;;;;;;7.07;6.37;;;14.10;99.90;;;;;;5030550;28;20241;-48
2021/08/07 04:12:59;;;;;;;7.57;6.13;;;14.10;99.90;;;;;;5028812;28;20466;-52
2021/08/07 04:15:24;;;;;;;8.40;6.57;;;14.20;99.90;;;;;;5030506;28;20421;-50
2021/08/07 04:17:50;;;;;;;8.27;6.13;;;14.20;99.90;;;;;;5029671;28;20241;-48
2021/08/07 04:20:16;;;;;;;6.83;6.23;;;14.20;99.90;;;;;;5030563;28;20799;-49
2021/08/07 04:22:41;;;;;;;7.03;6.43;;;14.20;99.90;;;;;;5028109;28;20190;-52
2021/08/07 04:25:08;;;;;;;6.70;6.10;;;14.20;99.90;;;;;;5028226;28;20195;-53
2021/08/07 04:27:34;;;;;;;7.57;5.93;;;14.20;99.90;;;;;;5030400;28;20811;-52
2021/08/07 04:30:02;;;;;;;6.70;5.97;;;14.20;99.90;;;;;;5029124;28;20433;-49
2021/08/07 04:32:28;;;;;;;7.67;6.70;;;14.20;99.90;;;;;;5027997;28;20429;-50
2021/08/07 04:34:53;;;;;;;8.90;6.43;;;14.20;99.90;;;;;;5030113;28;20471;-51
2021/08/07 04:37:19;;;;;;;7.00;6.40;;;14.20;99.90;;;;;;5029540;28;20187;-51
2021/08/07 04:39:44;;;;;;;6.87;6.27;;;14.20;99.90;;;;;;5030094;28;20210;-52
2021/08/07 04:42:10;;;;;;;7.23;6.53;;;14.30;99.90;;;;;;5029404;28;20175;-53
2021/08/07 04:44:36;;;;;;;6.33;5.77;;;14.30;99.90;;;;;;5030012;28;20227;-47
2021/08/07 04:47:02;;;;;;;6.20;5.70;;;14.30;99.90;;;;;;5028898;28;20202;-49
2021/08/07 04:49:27;;;;;;;6.10;5.60;;;14.40;99.90;;;;;;5029534;28;20191;-52
2021/08/07 04:51:53;;;;;;;6.10;5.60;;;14.50;99.90;;;;;;5030151;28;20797;-50
2021/08/07 04:54:18;;;;;;;5.87;5.37;;;14.50;99.90;;;;;;5029999;28;20222;-50
2021/08/07 04:56:44;;;;;;;6.07;5.57;;;14.60;99.90;;;;;;5028151;28;20202;-53
2021/08/07 04:59:09;;;;;;;6.53;5.93;;;14.60;99.90;;;;;;5028313;28;20858;-49
2021/08/07 05:01:35;;;;;;;5.33;4.93;;;14.80;99.90;;;;;;5028237;28;20230;-51
2021/08/07 05:04:00;;;;;;;5.77;5.20;;;14.80;99.90;;;;;;5029624;28;20194;-52
2021/08/07 05:06:26;;;;;;;5.90;5.50;;;14.80;99.90;;;;;;5028847;28;20209;-48
2021/08/07 05:08:51;;;;;;;6.13;5.57;;;14.90;99.90;;;;;;5028917;28;20189;-49
2021/08/07 05:11:17;;;;;;;6.53;5.33;;;15.00;99.90;;;;;;5028712;28;20591;-50
2021/08/07 05:13:43;;;;;;;5.90;5.40;;;15.00;99.90;;;;;;5029722;28;20209;-53
2021/08/07 05:16:08;;;;;;;5.50;5.00;;;15.10;99.90;;;;;;5028993;28;20180;-51
2021/08/07 05:18:34;;;;;;;5.20;4.80;;;15.20;99.90;;;;;;5029241;28;20201;-49
2021/08/07 05:20:59;;;;;;;5.20;4.70;;;15.20;99.90;;;;;;5029561;28;20632;-50
2021/08/07 05:23:25;;;;;;;5.30;4.90;;;15.30;99.90;;;;;;5029417;28;20183;-50
2021/08/07 05:25:50;;;;;;;5.17;4.67;;;15.40;99.90;;;;;;5027748;28;20186;-49
2021/08/07 05:28:16;;;;;;;4.97;4.57;;;15.50;99.90;;;;;;5026297;28;20233;-47
2021/08/07 05:30:41;;;;;;;4.73;4.43;;;15.60;99.90;;;;;;5027861;28;20194;-51
2021/08/07 05:33:07;;;;;;;4.07;3.77;;;15.70;99.90;;;;;;5029407;28;20677;-52
2021/08/07 05:35:32;;;;;;;4.00;3.60;;;15.80;99.90;;;;;;5037812;28;20220;-49
2021/08/07 05:37:58;;;;;;;4.40;4.00;;;15.90;99.90;;;;;;5032428;28;20183;-50
2021/08/07 05:40:23;;;;;;;4.00;3.70;;;16.00;99.90;;;;;;5028012;28;20204;-48
2021/08/07 05:42:49;;;;;;;4.23;3.93;;;16.10;99.90;;;;;;5029188;28;20191;-51
2021/08/07 05:45:15;;;;;;;4.20;3.80;;;16.20;99.90;;;;;;5028359;28;20214;-51
2021/08/07 05:47:41;;;;;;;4.13;3.70;;;16.30;99.90;;;;;;5026082;28;20194;-53
2021/08/07 05:50:08;;;;;;;4.37;4.00;;;16.40;99.90;;;;;;5027173;28;20433;-49
2021/08/07 05:52:34;;;;;;;3.63;3.27;;;16.40;99.90;;;;;;5027550;28;20213;-49
2021/08/07 05:55:00;;;;;;;4.00;3.60;;;16.60;99.90;;;;;;5026924;28;20443;-53
2021/08/07 05:57:25;;;;;;;3.77;3.47;;;16.70;99.90;;;;;;5027974;28;20273;-48
2021/08/07 05:59:51;;;;;;;4.20;3.80;;;16.80;99.90;;;;;;5026986;28;20661;-48
2021/08/07 06:02:16;;;;;;;3.00;2.80;;;16.90;99.90;;;;;;5027771;28;20577;-51
2021/08/07 06:04:42;;;;;;;3.07;2.87;;;17.10;99.90;;;;;;5027872;28;20183;-49
2021/08/07 06:07:07;;;;;;;3.57;3.27;;;17.20;99.90;;;;;;5027992;28;20184;-52
2021/08/07 06:09:33;;;;;;;3.20;3.00;;;17.40;99.90;;;;;;5028990;28;20615;-53
2021/08/07 06:11:59;;;;;;;3.20;2.90;;;17.50;99.90;;;;;;5027799;28;20726;-48
2021/08/07 06:14:24;;;;;;;2.93;2.20;;;17.70;99.90;;;;;;5028763;28;20263;-51
2021/08/07 06:16:50;;;;;;;3.30;3.00;;;17.80;94.60;;;;;;5026687;28;20192;-54
2021/08/07 06:19:15;;;;;;;3.00;2.70;;;17.80;91.90;;;;;;5027932;28;20211;-50
2021/08/07 06:21:41;;;;;;;2.70;2.50;;;18.00;54.80;;;;;;5032269;28;20179;-51
2021/08/07 06:24:07;;;;;;;3.10;2.80;;;18.20;19.40;;;;;;5032508;28;20657;-53
2021/08/07 06:26:32;;;;;;;2.53;2.33;;;18.50;13.60;;;;;;5031263;28;20185;-54
2021/08/07 06:28:58;;;;;;;2.30;2.20;;;18.60;23.50;;;;;;5032035;28;20193;-52
2021/08/07 06:31:23;;;;;;;2.80;2.60;;;18.70;34.20;;;;;;5029623;28;20186;-51
2021/08/07 06:33:50;;;;;;;2.90;2.27;;;18.90;35.60;;;;;;5032650;28;20194;-55
2021/08/07 06:36:16;;;;;;;2.47;2.27;;;19.10;32.80;;;;;;5031682;28;20183;-52
2021/08/07 06:38:41;;;;;;;2.30;2.10;;;19.20;22.20;;;;;;5032154;28;20490;-50
2021/08/07 06:41:07;;;;;;;6.23;2.90;;;19.30;19.20;;;;;;5031091;28;20655;-47
2021/08/07 06:43:33;;;;;;;2.50;2.17;;;19.40;14.80;;;;;;5031816;28;20175;-51
2021/08/07 06:45:59;;;;;;;2.20;2.00;;;19.60;18.40;;;;;;5030288;28;20175;-52
2021/08/07 06:48:24;;;;;;;2.60;2.40;;;19.70;1.00;;;;;;5032179;28;20194;-52
2021/08/07 06:50:50;;;;;;;2.60;2.23;;;19.80;1.00;;;;;;5030019;28;20217;-48
2021/08/07 06:53:16;;;;;;;2.50;2.30;;;19.80;1.00;;;;;;5029513;28;20633;-48
2021/08/07 06:55:41;;;;;;;3.63;2.30;;;20.00;1.00;;;;;;5032247;28;20175;-50
2021/08/07 06:58:07;;;;;;;3.23;2.93;;;20.00;1.00;;;;;;5031961;28;20179;-54
2021/08/07 07:00:36;;;;;;;2.40;2.23;;;20.10;1.00;;;;;;5029204;28;20309;-51
2021/08/07 07:03:01;;;;;;;2.40;2.20;;;20.10;1.00;;;;;;5029143;28;20901;-56
2021/08/07 07:05:31;;;;;;;3.33;2.37;;;20.20;1.00;;;;;;5031876;28;20430;-60
2021/08/07 07:07:57;;;;;;;2.20;2.10;;;20.30;1.00;;;;;;5030021;28;20179;-60
2021/08/07 07:10:22;;;;;;;2.70;2.50;;;20.30;1.00;;;;;;5031430;28;20492;-60
2021/08/07 07:12:48;;;;;;;2.23;2.13;;;20.50;1.00;;;;;;5029084;28;20191;-60
2021/08/07 07:15:14;;;;;;;2.30;2.20;;;20.60;1.00;;;;;;5031799;28;20185;-60
2021/08/07 07:17:39;;;;;;;3.30;2.30;;;20.60;1.00;;;;;;5031087;28;20286;-60
2021/08/07 07:20:06;;;;;;;2.73;2.40;;;20.70;1.00;;;;;;5031516;28;20233;-60
2021/08/07 07:22:32;;;;;;;4.60;2.50;;;20.80;99.90;;;;;;5031538;28;20175;-61
2021/08/07 07:24:58;;;;;;;2.37;2.27;;;20.90;1.00;;;;;;5031699;28;20441;-60
2021/08/07 07:27:23;;;;;;;2.57;2.37;;;20.90;1.00;;;;;;5030097;28;20259;-60
2021/08/07 07:29:49;;;;;;;2.43;2.33;;;20.90;99.90;;;;;;5031258;28;20598;-61
2021/08/07 07:32:14;;;;;;;2.23;2.13;;;20.90;1.00;;;;;;5026551;28;20213;-59
2021/08/07 07:34:40;;;;;;;3.00;2.63;;;21.00;82.30;;;;;;5031264;28;20193;-60
2021/08/07 07:37:06;;;;;;;2.30;2.20;;;21.10;1.00;;;;;;5030617;28;20705;-59
2021/08/07 07:39:32;;;;;;;2.67;2.57;;;21.10;1.00;;;;;;5030810;28;20337;-59
2021/08/07 07:41:58;;;;;;;2.67;2.47;;;21.20;1.00;;;;;;5029625;28;20472;-60
2021/08/07 07:44:23;;;;;;;3.33;3.03;;;21.20;1.00;;;;;;5031180;28;20215;-60
2021/08/07 07:46:49;;;;;;;2.60;2.40;;;21.20;1.00;;;;;;5030876;28;20191;-60
2021/08/07 07:49:15;;;;;;;2.57;2.43;;;21.30;1.00;;;;;;5030444;28;20183;-60
2021/08/07 07:51:40;;;;;;;2.37;2.27;;;21.40;1.00;;;;;;5031167;28;20210;-59
2021/08/07 07:54:06;;;;;;;2.63;2.53;;;21.50;99.90;;;;;;5029699;28;20202;-60
2021/08/07 07:56:31;;;;;;;2.87;2.67;;;21.70;99.90;;;;;;5031253;28;20186;-60
2021/08/07 07:58:57;;;;;;;3.17;2.90;;;21.70;99.90;;;;;;5030865;28;20241;-59
2021/08/07 08:01:22;;;;;;;3.13;2.93;;;21.80;1.00;;;;;;5029247;28;20306;-60
2021/08/07 08:03:48;;;;;;;2.90;2.80;;;21.90;1.00;;;;;;5030470;28;20222;-59
2021/08/07 08:06:13;;;;;;;3.37;3.17;;;22.00;1.00;;;;;;5030123;28;20185;-59
2021/08/07 08:08:39;;;;;;;3.00;2.80;;;22.00;99.90;;;;;;5030692;28;20205;-59
2021/08/07 08:11:05;;;;;;;3.03;2.83;;;22.00;1.00;;;;;;5029910;28;20181;-59
2021/08/07 08:13:32;;;;;;;3.03;2.83;;;22.10;99.90;;;;;;5030528;28;20670;-59
2021/08/07 08:15:57;;;;;;;3.13;2.93;;;22.20;99.90;;;;;;5028814;28;20562;-60
2021/08/07 08:18:23;;;;;;;2.87;2.60;;;22.30;99.90;;;;;;5029469;28;20501;-60
2021/08/07 08:20:49;;;;;;;3.07;2.97;;;22.50;99.90;;;;;;5030180;28;20199;-59
2021/08/07 08:23:14;;;;;;;3.10;2.90;;;22.60;1.00;;;;;;5028000;28;20181;-58
2021/08/07 08:25:40;;;;;;;3.37;3.07;;;22.60;99.90;;;;;;5030373;28;20181;-60
2021/08/07 08:28:06;;;;;;;3.07;2.90;;;22.80;1.00;;;;;;5029464;28;20583;-59
2021/08/07 08:30:32;;;;;;;2.87;2.77;;;23.00;99.90;;;;;;5032929;28;20181;-60
2021/08/07 08:32:57;;;;;;;3.10;2.90;;;23.10;1.00;;;;;;5030305;28;20433;-58
2021/08/07 08:35:23;;;;;;;2.97;2.80;;;23.20;1.00;;;;;;5029553;28;21014;-59
2021/08/07 08:37:49;;;;;;;3.30;3.00;;;23.40;99.90;;;;;;5027681;28;20822;-59
2021/08/07 08:40:15;;;;;;;3.30;3.10;;;23.50;99.90;;;;;;5030150;28;20201;-59
2021/08/07 08:42:41;;;;;;;2.70;2.60;;;23.50;1.00;;;;;;5028718;28;20182;-60
2021/08/07 08:45:08;;;;;;;2.73;2.63;;;23.60;99.90;;;;;;5030284;28;20426;-59
2021/08/07 08:47:35;;;;;;;2.83;2.73;;;23.70;99.90;;;;;;5028378;28;20436;-60
2021/08/07 08:50:02;;;;;;;2.80;2.70;;;23.80;99.90;;;;;;5029734;28;20431;-59
2021/08/07 08:52:29;;;;;;;2.93;2.83;;;24.10;1.00;;;;;;5025798;28;20210;-59
2021/08/07 08:54:56;;;;;;;3.50;3.30;;;24.30;1.00;;;;;;5029949;28;20461;-59
2021/08/07 08:57:22;;;;;;;3.50;3.30;;;24.50;1.00;;;;;;5026871;28;20437;-59
2021/08/07 08:59:48;;;;;;;3.40;3.20;;;24.80;1.00;;;;;;5029224;28;20495;-59
2021/08/07 09:02:14;;;;;;;3.10;3.00;;;25.00;1.00;;;;;;5028545;28;20433;-59
2021/08/07 09:04:40;;;;;;;3.20;3.10;;;24.90;1.00;;;;;;5028831;28;20428;-59
2021/08/07 09:07:05;;;;;;;3.63;3.43;;;25.00;1.00;;;;;;5029440;28;20198;-58
2021/08/07 09:09:43;;;;;;;3.27;3.17;;;24.90;1.00;;;;;;5027771;28;20189;-59
2021/08/07 09:12:09;;;;;;;3.50;3.40;;;25.00;1.00;;;;;;5017900;28;20174;-59
2021/08/07 09:14:37;;;;;;;4.47;4.27;;;25.50;1.00;;;;;;5028034;28;20968;-59
2021/08/07 09:17:10;;;;;;;3.40;3.30;;;26.10;1.00;;;;;;5029603;28;20415;-60
2021/08/07 09:19:39;;;;;;;3.70;3.50;;;26.70;99.90;;;;;;5027791;28;20457;-60
2021/08/07 09:22:17;;;;;;;3.10;3.00;;;26.80;99.90;;;;;;5029576;28;20427;-59
2021/08/07 09:25:07;;;;;;;3.50;3.40;;;26.80;99.90;;;;;;5027274;28;20431;-60
2021/08/07 09:27:34;;;;;;;3.50;3.30;;;27.10;99.90;;;;;;5029661;28;20434;-59
2021/08/07 09:30:01;;;;;;;3.60;3.40;;;26.80;99.90;;;;;;5028529;28;20455;-60
2021/08/07 09:32:42;;;;;;;3.40;3.30;;;26.70;99.90;;;;;;5029271;28;20438;-59
2021/08/07 09:35:09;;;;;;;3.57;3.37;;;27.00;99.90;;;;;;5029078;28;20472;-59
2021/08/07 09:37:35;;;;;;;4.53;4.30;;;27.50;99.90;;;;;;5029064;28;20471;-59
2021/08/07 09:40:06;;;;;;;4.30;4.10;;;27.60;99.90;;;;;;5028063;28;20464;-60
2021/08/07 09:42:33;;;;;;;3.23;3.13;;;27.60;99.90;;;;;;5029356;28;20427;-60
2021/08/07 09:45:08;;;;;;;4.20;4.00;;;27.80;99.90;;;;;;5027828;28;20931;-58
2021/08/07 09:47:34;;;;;;;3.43;3.33;;;28.40;99.90;;;;;;5029239;28;20482;-59
2021/08/07 09:50:01;;;;;;;3.83;3.53;;;28.60;99.90;;;;;;5030154;28;20469;-59
2021/08/07 09:52:37;;;;;;;3.10;3.00;;;28.50;99.90;;;;;;5015994;28;20453;-58
2021/08/07 09:55:03;;;;;;;3.23;3.13;;;29.20;99.90;;;;;;5030640;28;20421;-59
2021/08/07 09:57:31;;;;;;;3.17;3.07;;;30.00;99.90;;;;;;5032114;28;20424;-59
2021/08/07 09:59:57;;;;;;;3.40;3.17;;;30.50;99.90;;;;;;5032829;28;20551;-58
2021/08/07 10:02:26;;;;;;;3.40;3.30;;;30.70;99.90;;;;;;5032955;28;20520;-59
2021/08/07 10:04:52;;;;;;;3.10;3.00;;;30.40;99.90;;;;;;5028766;28;20213;-59
2021/08/07 10:07:18;;;;;;;3.37;3.17;;;30.20;99.90;;;;;;5032720;28;20552;-59
2021/08/07 10:09:44;;;;;;;3.67;3.50;;;30.70;99.90;;;;;;5032055;28;21067;-59
2021/08/07 10:12:12;;;;;;;3.40;3.20;;;31.10;99.90;;;;;;5032888;28;20189;-59
2021/08/07 10:14:39;;;;;;;3.37;3.27;;;30.90;99.90;;;;;;5032903;28;20187;-59
2021/08/07 10:17:07;;;;;;;3.20;3.03;;;30.10;99.90;;;;;;5032335;28;20417;-59
2021/08/07 10:19:35;;;;;;;3.30;3.10;;;29.80;99.90;;;;;;5032267;28;20842;-59
2021/08/07 10:22:05;;;;;;;3.27;3.17;;;29.70;99.90;;;;;;5032737;28;20504;-59
2021/08/07 10:24:31;;;;;;;2.93;2.80;;;30.10;99.90;;;;;;5032221;28;20439;-59
2021/08/07 10:26:58;;;;;;;3.13;3.03;;;30.60;99.90;;;;;;5031363;28;20887;-59
2021/08/07 10:29:36;;;;;;;3.60;3.40;;;31.30;99.90;;;;;;5030078;28;20186;-59
2021/08/07 10:32:04;;;;;;;3.47;3.20;;;31.40;99.90;;;;;;5020990;28;21096;-59
2021/08/07 10:34:32;;;;;;;3.23;3.13;;;31.20;99.90;;;;;;5027441;28;20763;-59
2021/08/07 10:36:58;;;;;;;3.60;3.47;;;31.40;99.90;;;;;;5032417;28;21276;-59
2021/08/07 10:39:23;;;;;;;3.20;3.10;;;31.70;99.90;;;;;;5031109;28;20463;-59
2021/08/07 10:41:50;;;;;;;3.50;3.30;;;31.50;99.90;;;;;;5031579;28;20747;-59
2021/08/07 10:44:16;;;;;;;3.90;3.57;;;31.80;99.90;;;;;;5032306;28;20944;-59
2021/08/07 10:46:42;;;;;;;3.43;3.33;;;32.50;99.90;;;;;;5031712;28;20414;-59
2021/08/07 10:49:11;;;;;;;3.47;3.13;;;33.10;99.90;;;;;;5032199;28;20421;-59
2021/08/07 10:51:39;;;;;;;3.13;3.03;;;33.80;99.90;;;;;;5018502;28;20186;-59
2021/08/07 10:54:14;;;;;;;3.97;3.60;;;33.40;99.90;;;;;;5030774;28;20520;-59
2021/08/07 10:56:42;;;;;;;3.60;2.97;;;33.30;99.90;;;;;;5019584;28;21156;-59
2021/08/07 10:59:10;;;;;;;3.30;3.20;;;33.50;99.90;;;;;;5031855;28;20472;-59
2021/08/07 11:01:37;;;;;;;3.00;2.90;;;33.60;99.90;;;;;;5031102;28;20901;-59
2021/08/07 11:04:07;;;;;;;3.20;3.10;;;33.50;99.90;;;;;;5031437;28;20425;-59
2021/08/07 11:06:39;;;;;;;3.00;2.90;;;33.90;99.90;;;;;;5030495;28;20974;-59
2021/08/07 11:09:25;;;;;;;3.30;3.20;;;33.50;99.90;;;;;;5031756;28;20439;-59
2021/08/07 11:12:16;;;;;;;3.20;3.00;;;33.90;99.90;;;;;;5019285;28;20485;-59
2021/08/07 11:14:46;;;;;;;4.57;4.27;;;33.90;99.90;;;;;;5030489;28;20766;-58
2021/08/07 11:17:12;;;;;;;5.53;5.23;;;33.60;99.90;;;;;;5032012;28;20504;-59
2021/08/07 11:19:59;;;;;;;3.70;3.50;;;33.40;99.90;;;;;;5025349;28;20553;-59
2021/08/07 11:22:37;;;;;;;3.60;3.50;;;32.70;99.90;;;;;;5030981;28;20259;-58
2021/08/07 11:25:11;;;;;;;3.70;3.50;;;32.40;99.90;;;;;;5019041;28;20410;-58
2021/08/07 11:27:52;;;;;;;3.30;3.20;;;31.70;99.90;;;;;;5030603;28;20838;-59
2021/08/07 11:30:20;;;;;;;3.77;3.67;;;30.50;99.90;;;;;;5020115;28;20432;-59
2021/08/07 11:33:00;;;;;;;3.77;3.57;;;29.50;99.90;;;;;;5029846;28;20435;-59
2021/08/07 11:40:55;;;;;;;3.60;3.40;;;28.50;99.90;;;;;;5031615;28;20461;-59
2021/08/07 11:43:26;;;;;;;3.77;3.60;;;28.00;99.90;;;;;;5030100;28;20770;-60
2021/08/07 11:45:54;;;;;;;3.93;3.83;;;28.00;99.90;;;;;;5030555;28;20421;-59
2021/08/07 11:48:23;;;;;;;3.87;3.67;;;28.00;99.90;;;;;;5029375;28;20436;-59
2021/08/07 11:50:50;;;;;;;4.00;3.80;;;27.80;99.90;;;;;;5031027;28;20417;-59
2021/08/07 11:53:19;;;;;;;4.13;3.93;;;27.30;99.90;;;;;;5030845;28;20464;-60
2021/08/07 11:55:45;;;;;;;4.07;3.87;;;27.30;99.90;;;;;;5028833;28;20510;-60
2021/08/07 11:58:12;;;;;;;3.87;3.67;;;27.30;99.90;;;;;;5030194;28;20798;-59
2021/08/07 12:00:39;;;;;;;3.93;3.63;;;27.30;99.90;;;;;;5030474;28;20484;-58
2021/08/07 12:03:12;;;;;;;3.97;3.77;;;27.00;99.90;;;;;;5027068;28;20547;-59
2021/08/07 12:05:52;;;;;;;3.50;3.30;;;26.90;99.90;;;;;;5030532;28;20417;-59
2021/08/07 12:08:18;;;;;;;3.67;3.57;;;26.90;99.90;;;;;;5019970;28;20911;-59
2021/08/07 12:10:52;;;;;;;4.20;4.00;;;26.80;99.90;;;;;;5029391;28;20480;-59
2021/08/07 12:13:19;;;;;;;4.03;3.83;;;26.70;99.90;;;;;;5029705;28;20420;-59
2021/08/07 12:16:03;;;;;;;4.20;4.00;;;26.70;99.90;;;;;;5030780;28;20535;-56
2021/08/07 12:18:50;;;;;;;3.40;3.30;;;26.90;99.90;;;;;;5028937;28;20421;-59
2021/08/07 12:21:27;;;;;;;4.50;4.30;;;27.40;99.90;;;;;;5026540;28;20823;-58
2021/08/07 12:23:56;;;;;;;4.03;3.83;;;27.80;99.90;;;;;;5029265;28;20427;-59
2021/08/07 12:26:24;;;;;;;4.10;3.90;;;28.20;99.90;;;;;;5030317;28;20402;-58
2021/08/07 12:29:04;;;;;;;4.10;3.90;;;28.60;99.90;;;;;;5029426;28;20514;-59
2021/08/07 12:31:43;;;;;;;4.37;4.13;;;29.80;99.90;;;;;;5030368;28;20449;-59
2021/08/07 12:34:15;;;;;;;3.70;3.60;;;31.00;99.90;;;;;;5028735;28;20440;-58
2021/08/07 12:36:42;;;;;;;3.90;3.70;;;31.60;99.90;;;;;;5029757;28;20426;-59
2021/08/07 12:39:08;;;;;;;4.00;3.80;;;32.30;99.90;;;;;;5029398;28;20512;-59
2021/08/07 12:41:34;;;;;;;3.97;3.67;;;33.20;99.90;;;;;;5029648;28;20482;-59
2021/08/07 12:44:00;;;;;;;3.47;3.37;;;33.80;99.90;;;;;;5016197;28;20818;-59
2021/08/07 12:46:25;;;;;;;3.90;3.70;;;34.60;99.90;;;;;;5028626;28;20421;-57
2021/08/07 12:48:55;;;;;;;4.20;3.90;;;35.40;99.90;;;;;;5029164;28;20198;-58
2021/08/07 12:51:35;;;;;;;4.03;3.73;;;34.50;99.90;;;;;;5029721;28;20183;-59
2021/08/07 12:54:13;;;;;;;4.37;4.17;;;33.60;99.90;;;;;;5028877;28;20472;-59
2021/08/07 12:56:47;;;;;;;4.60;4.40;;;32.90;99.90;;;;;;5029689;28;20938;-59